Time;durP1;ratioP1;P1;durP2;ratioP2;P2;SDS_P1;SDS_P2;PMS_P1;PMS_P2;Temp;Humidity;BMP_temperature;BMP_pressure;BME280_temperature;BME280_humidity;BME280_pressure;Samples;Min_cycle;Max_cycle;Signal;HPM_P1;HPM_P2
2022/12/30 00:01:19;;;;;;;141.65;56.25;;;;;;;12.39;76.43;101663.38;5037825;28;20437;-79
2022/12/30 00:03:46;;;;;;;126.20;55.70;;;;;;;12.76;76.12;101677.22;5054595;28;20048;-78
2022/12/30 00:06:17;;;;;;;160.18;63.55;;;;;;;12.48;76.93;101683.94;5055401;28;20048;-76
2022/12/30 00:08:47;;;;;;;139.52;56.50;;;;;;;12.49;77.38;101682.13;5037891;28;20059;-77
2022/12/30 00:11:24;;;;;;;131.77;54.83;;;;;;;12.33;76.42;101631.88;5054852;28;20273;-77
2022/12/30 00:33:58;;;;;;;149.18;59.28;;;;;;;12.64;76.06;101677.38;5050715;28;20117;-77
2022/12/30 00:36:29;;;;;;;170.43;68.53;;;;;;;12.28;76.59;101660.69;5036577;28;20528;-77
2022/12/30 00:38:56;;;;;;;158.80;63.70;;;;;;;12.34;77.58;101692.19;5038363;28;20045;-77
2022/12/30 00:44:10;;;;;;;143.20;58.88;;;;;;;13.34;74.26;101690.28;5036971;28;20506;-79
2022/12/30 00:46:42;;;;;;;149.07;58.17;;;;;;;13.19;74.00;101696.88;5032434;28;20049;-77
2022/12/30 00:57:37;;;;;;;147.20;58.80;;;;;;;12.71;76.46;101724.72;5043409;28;20530;-79
2022/12/30 01:00:11;;;;;;;142.23;58.75;;;;;;;12.61;76.14;101700.63;5052332;28;20099;-76
2022/12/30 01:02:42;;;;;;;182.52;69.13;;;;;;;12.20;77.30;101706.56;5054390;28;20060;-79
2022/12/30 01:05:09;;;;;;;162.65;62.22;;;;;;;12.10;78.25;101713.59;5033478;28;20478;-78
2022/12/30 01:07:36;;;;;;;184.85;69.18;;;;;;;12.04;78.80;101706.94;5037158;28;20123;-76
2022/12/30 01:10:03;;;;;;;185.75;71.10;;;;;;;11.85;79.67;101701.31;5034829;28;20045;-78
2022/12/30 01:12:30;;;;;;;174.20;65.30;;;;;;;12.20;77.51;101674.63;5035883;28;20316;-77
2022/12/30 01:14:58;;;;;;;179.82;66.30;;;;;;;11.88;78.67;101685.13;5032858;28;20049;-80
2022/12/30 01:17:32;;;;;;;151.02;56.60;;;;;;;12.05;78.65;101689.97;5052063;28;20192;-79
2022/12/30 01:19:59;;;;;;;170.23;63.78;;;;;;;11.88;78.87;101711.75;5015163;28;20513;-78
2022/12/30 01:22:26;;;;;;;149.52;57.17;;;;;;;12.43;77.96;101718.09;5036174;28;20037;-79
2022/12/30 01:24:53;;;;;;;155.65;58.83;;;;;;;12.91;75.81;101708.94;5036847;28;20485;-79
2022/12/30 01:27:20;;;;;;;173.98;66.47;;;;;;;12.33;76.42;101687.81;5038872;28;20067;-78
2022/12/30 01:29:48;;;;;;;146.80;58.78;;;;;;;12.39;77.29;101708.63;5053966;28;20392;-79
2022/12/30 01:32:21;;;;;;;152.13;58.42;;;;;;;12.61;75.90;101654.50;5034970;28;20055;-78
2022/12/30 01:34:55;;;;;;;139.07;56.05;;;;;;;12.95;75.14;101697.91;5037261;28;20056;-79
2022/12/30 01:37:26;;;;;;;134.60;55.80;;;;;;;13.25;74.36;101707.88;5035129;28;20543;-78
2022/12/30 01:39:56;;;;;;;144.82;57.58;;;;;;;13.26;74.05;101708.72;5034532;28;20410;-78
2022/12/30 01:42:25;;;;;;;144.63;56.78;;;;;;;13.35;73.74;101710.66;5017882;28;20053;-77
2022/12/30 01:45:23;;;;;;;142.75;56.45;;;;;;;13.04;74.20;101706.97;5034667;28;20052;-79
2022/12/30 01:48:15;;;;;;;162.25;63.78;;;;;;;12.71;75.40;101694.56;5010857;28;20696;-79
2022/12/30 01:51:00;;;;;;;156.88;62.58;;;;;;;12.92;74.13;101682.16;5016985;28;20051;-77
2022/12/30 01:53:32;;;;;;;129.10;53.80;;;;;;;12.51;73.29;101555.84;5019014;28;20048;-76
2022/12/30 01:56:13;;;;;;;145.15;55.95;;;;;;;13.50;72.67;101694.34;5015916;28;20088;-78
2022/12/30 01:58:51;;;;;;;150.57;56.80;;;;;;;13.05;74.21;101692.66;5034185;28;20048;-77
2022/12/30 02:01:19;;;;;;;140.40;54.65;;;;;;;12.95;74.70;101686.41;5037698;28;20483;-78
2022/12/30 02:03:56;;;;;;;165.43;62.20;;;;;;;12.36;75.09;101621.84;5041156;28;20052;-78
2022/12/30 02:06:49;;;;;;;171.65;62.78;;;;;;;12.33;75.53;101634.56;5041682;28;20205;-78
2022/12/30 02:09:16;;;;;;;173.60;67.22;;;;;;;11.98;76.57;101623.06;5037790;28;20051;-77
2022/12/30 02:11:43;;;;;;;140.38;55.35;;;;;;;12.73;75.91;101682.81;5037958;28;20052;-76
2022/12/30 02:14:11;;;;;;;141.23;56.75;;;;;;;12.84;75.53;101657.97;5039218;28;20071;-78
2022/12/30 02:17:13;;;;;;;169.23;60.97;;;;;;;12.63;75.65;101670.38;5039655;28;20049;-78
2022/12/30 02:20:09;;;;;;;159.63;58.15;;;;;;;12.52;76.57;101669.38;5041833;28;20398;-76
2022/12/30 02:22:58;;;;;;;146.45;56.88;;;;;;;12.95;75.49;101670.41;5054454;28;20341;-78
2022/12/30 02:25:44;;;;;;;151.95;54.63;;;;;;;13.38;73.50;101662.38;5054626;28;20522;-76
2022/12/30 02:28:37;;;;;;;146.50;55.03;;;;;;;12.82;73.98;101567.47;5055372;28;20064;-77
2022/12/30 02:31:28;;;;;;;135.45;53.83;;;;;;;12.89;74.54;101618.47;5037973;28;20040;-78
2022/12/30 02:34:12;;;;;;;146.52;54.53;;;;;;;13.38;72.63;101613.53;5038397;28;20053;-78
2022/12/30 02:36:38;;;;;;;136.73;55.95;;;;;;;12.99;72.46;101542.09;5023333;28;20324;-78
2022/12/30 02:39:13;;;;;;;149.60;56.20;;;;;;;13.53;71.93;101628.25;5033060;28;20041;-78
2022/12/30 02:44:57;;;;;;;142.10;56.05;;;;;;;13.21;73.54;101612.28;5036648;28;20055;-78
2022/12/30 02:47:26;;;;;;;147.70;55.00;;;;;;;13.21;73.32;101612.28;5035342;28;20041;-77
2022/12/30 02:52:53;;;;;;;138.75;53.92;;;;;;;13.38;72.54;101598.38;5034256;28;20192;-78
2022/12/30 02:55:20;;;;;;;156.80;62.83;;;;;;;13.38;71.71;101606.38;5032286;28;20076;-77
2022/12/30 02:57:51;;;;;;;133.32;51.35;;;;;;;13.12;73.35;101603.22;5041770;28;20085;-78
2022/12/30 03:06:19;;;;;;;136.25;55.67;;;;;;;13.29;72.90;101609.81;5050829;28;20064;-79
2022/12/30 03:09:14;;;;;;;167.60;65.07;;;;;;;12.75;73.42;101605.44;5037627;28;20059;-80
2022/12/30 03:12:10;;;;;;;151.43;54.28;;;;;;;12.78;74.46;101586.53;5037992;28;20377;-78
2022/12/30 03:14:51;;;;;;;146.43;56.03;;;;;;;13.24;72.94;101602.16;5016871;28;20080;-79
2022/12/30 03:17:38;;;;;;;182.20;70.40;;;;;;;12.93;73.31;101606.56;5017789;28;20044;-79
2022/12/30 03:20:14;;;;;;;153.85;58.28;;;;;;;12.86;74.45;101607.19;5039323;28;20342;-78
2022/12/30 03:28:21;;;;;;;139.70;58.45;;;;;;;12.23;76.44;101599.84;5035935;28;20049;-79
2022/12/30 03:30:57;;;;;;;151.50;57.47;;;;;;;11.89;76.67;101580.38;5017548;28;20118;-78
2022/12/30 03:33:26;;;;;;;143.85;57.35;;;;;;;12.46;76.17;101605.97;5048184;28;20061;-78
2022/12/30 03:36:03;;;;;;;139.93;55.60;;;;;;;12.83;74.99;101616.28;5032994;28;20049;-78
2022/12/30 03:38:35;;;;;;;149.00;55.78;;;;;;;12.49;75.57;101583.56;5048991;28;20655;-80
2022/12/30 03:41:05;;;;;;;158.80;60.03;;;;;;;12.75;74.65;101618.75;5078179;28;20134;-78
2022/12/30 03:43:37;;;;;;;140.25;54.33;;;;;;;12.06;75.54;101566.56;5060537;28;20044;-77
2022/12/30 03:46:07;;;;;;;149.02;60.38;;;;;;;12.34;75.82;101612.31;5059344;28;20055;-77
2022/12/30 03:48:34;;;;;;;154.23;61.10;;;;;;;12.03;76.60;101614.72;5057583;28;20131;-77
2022/12/30 03:51:04;;;;;;;163.93;65.03;;;;;;;12.28;75.90;101615.44;5055721;28;20330;-77
2022/12/30 03:53:35;;;;;;;139.38;55.50;;;;;;;12.70;74.80;101591.66;5073011;28;20055;-77
2022/12/30 03:56:05;;;;;;;132.38;54.15;;;;;;;12.56;75.66;101616.72;5056772;28;20437;-77
2022/12/30 03:58:32;;;;;;;151.23;58.30;;;;;;;12.46;75.34;101595.34;5056492;28;20117;-78
2022/12/30 04:00:59;;;;;;;154.85;63.50;;;;;;;12.31;75.87;101623.22;5060034;28;20070;-80
2022/12/30 04:03:26;;;;;;;146.25;57.88;;;;;;;12.08;76.46;101625.00;5035299;28;20075;-77
2022/12/30 04:05:56;;;;;;;158.43;61.88;;;;;;;11.58;77.75;101603.16;5033820;28;20055;-76
2022/12/30 04:08:24;;;;;;;149.85;63.33;;;;;;;11.64;78.44;101630.16;5029494;28;20051;-78
2022/12/30 04:10:51;;;;;;;165.82;61.45;;;;;;;11.51;78.83;101646.19;5032052;28;20059;-79
2022/12/30 04:13:18;;;;;;;162.60;64.65;;;;;;;11.07;79.45;101545.94;5027666;28;20260;-78
2022/12/30 04:15:52;;;;;;;164.25;66.07;;;;;;;11.00;79.63;101576.59;5033375;28;20212;-77
2022/12/30 04:18:19;;;;;;;153.05;61.33;;;;;;;10.87;80.08;101566.00;5028055;28;20230;-78
2022/12/30 04:20:48;;;;;;;152.07;60.03;;;;;;;11.27;80.77;101622.31;5028230;28;20045;-78
2022/12/30 04:23:15;;;;;;;149.15;61.60;;;;;;;11.26;81.12;101647.22;5031433;28;20502;-78
2022/12/30 04:25:45;;;;;;;154.95;62.08;;;;;;;11.13;80.97;101646.44;5034682;28;20593;-78
2022/12/30 04:28:12;;;;;;;164.90;66.22;;;;;;;10.99;81.09;101633.31;5032152;28;20060;-78
2022/12/30 04:30:40;;;;;;;162.23;65.32;;;;;;;10.79;82.24;101648.94;5033997;28;20057;-79
2022/12/30 04:33:07;;;;;;;170.23;62.70;;;;;;;11.05;82.59;101616.94;5036642;28;20590;-78
2022/12/30 04:35:36;;;;;;;170.30;66.97;;;;;;;11.00;82.59;101635.03;5035541;28;20049;-78
2022/12/30 04:38:09;;;;;;;137.90;56.40;;;;;;;11.10;82.51;101654.66;5021496;28;20132;-79
2022/12/30 04:40:36;;;;;;;158.70;63.90;;;;;;;11.30;81.96;101647.81;5014051;28;20056;-79
2022/12/30 04:43:04;;;;;;;173.82;68.40;;;;;;;11.12;82.30;101623.50;5013192;28;20049;-77
2022/12/30 04:45:30;;;;;;;175.95;68.10;;;;;;;11.57;80.95;101623.59;5006909;28;20407;-78
2022/12/30 04:47:57;;;;;;;164.43;65.78;;;;;;;11.09;80.48;101582.06;5010503;28;20533;-77
2022/12/30 04:50:24;;;;;;;156.50;63.38;;;;;;;11.23;81.58;101638.63;5010333;28;20050;-78
2022/12/30 04:52:51;;;;;;;159.88;65.75;;;;;;;11.10;81.88;101630.72;5010518;28;20128;-78
2022/12/30 04:55:25;;;;;;;165.55;66.78;;;;;;;10.66;82.08;101581.75;5011873;28;20091;-78
2022/12/30 04:57:52;;;;;;;162.57;63.30;;;;;;;10.94;83.54;101643.44;5021966;28;20045;-79
2022/12/30 05:00:19;;;;;;;148.93;57.92;;;;;;;11.48;82.01;101641.13;5030893;28;20049;-79
2022/12/30 05:02:47;;;;;;;136.00;55.50;;;;;;;12.01;79.90;101643.28;5044367;28;20057;-79
2022/12/30 05:05:14;;;;;;;169.05;63.72;;;;;;;11.86;79.62;101647.13;5030320;28;20406;-78
2022/12/30 05:07:41;;;;;;;142.93;59.50;;;;;;;11.60;80.12;101638.47;5030087;28;20083;-79
2022/12/30 05:10:10;;;;;;;175.30;70.00;;;;;;;11.63;80.09;101652.41;5029413;28;20875;-79
2022/12/30 05:12:37;;;;;;;164.00;66.85;;;;;;;11.18;82.38;101644.28;5030880;28;20517;-78
2022/12/30 05:15:04;;;;;;;180.57;66.32;;;;;;;11.10;82.81;101662.63;5033003;28;20423;-77
2022/12/30 05:17:31;;;;;;;178.55;66.57;;;;;;;10.99;83.88;101655.41;5030871;28;20057;-78
2022/12/30 05:19:58;;;;;;;167.15;67.43;;;;;;;10.90;84.03;101666.75;5034376;28;20041;-79
2022/12/30 05:22:28;;;;;;;148.25;58.70;;;;;;;10.82;84.46;101658.47;5032459;28;20061;-79
2022/12/30 05:27:40;;;;;;;145.60;59.55;;;;;;;11.32;82.27;101638.78;5034784;28;20053;-79
2022/12/30 05:30:07;;;;;;;150.30;57.30;;;;;;;11.48;82.04;101640.25;5030210;28;20329;-79
2022/12/30 05:32:34;;;;;;;179.45;68.22;;;;;;;11.20;81.55;101605.16;5034072;28;20175;-79
2022/12/30 05:35:04;;;;;;;139.60;59.42;;;;;;;11.81;80.96;101654.59;5034217;28;20403;-79
2022/12/30 05:37:31;;;;;;;143.80;63.90;;;;;;;11.59;80.96;101647.44;5030208;28;20048;-78
2022/12/30 05:39:57;;;;;;;128.70;55.55;;;;;;;11.73;81.08;101661.38;5012575;28;20718;-79
2022/12/30 05:42:24;;;;;;;135.32;56.78;;;;;;;12.28;78.19;101634.06;5013873;28;20049;-78
2022/12/30 05:44:51;;;;;;;139.77;56.80;;;;;;;12.85;76.48;101646.31;5029870;28;20076;-79
2022/12/30 05:47:17;;;;;;;173.50;64.88;;;;;;;12.78;75.68;101642.47;5015702;28;20108;-79
2022/12/30 05:49:44;;;;;;;132.27;57.38;;;;;;;12.22;77.16;101630.09;5009928;28;20111;-79
2022/12/30 05:52:11;;;;;;;151.77;59.65;;;;;;;11.95;78.75;101625.16;5030019;28;20414;-79
2022/12/30 05:54:39;;;;;;;156.00;63.75;;;;;;;12.19;77.98;101646.31;5010855;28;20067;-79
2022/12/30 05:57:06;;;;;;;136.60;57.08;;;;;;;11.89;79.31;101633.59;5017491;28;20446;-77
2022/12/30 05:59:33;;;;;;;176.80;69.60;;;;;;;12.24;77.80;101648.63;5029396;28;20045;-78
2022/12/30 06:02:00;;;;;;;144.18;56.95;;;;;;;11.82;78.86;101614.59;5044435;28;20461;-78
2022/12/30 06:04:27;;;;;;;167.65;68.20;;;;;;;11.68;79.70;101636.09;5030081;28;20040;-78
2022/12/30 06:06:57;;;;;;;158.65;66.22;;;;;;;11.51;80.89;101658.66;5031015;28;20055;-79
2022/12/30 06:09:24;;;;;;;161.27;66.53;;;;;;;11.22;82.43;101644.91;5025860;28;20211;-79
2022/12/30 06:11:50;;;;;;;131.88;56.80;;;;;;;11.31;81.95;101607.84;5021849;28;20851;-78
2022/12/30 06:14:20;;;;;;;150.43;60.10;;;;;;;12.22;78.87;101634.59;5015808;28;20059;-79
2022/12/30 06:16:48;;;;;;;156.48;66.05;;;;;;;12.19;78.53;101646.31;5039287;28;20129;-78
2022/12/30 06:19:14;;;;;;;164.02;68.03;;;;;;;12.26;78.36;101658.19;5010663;28;20052;-79
2022/12/30 06:21:42;;;;;;;138.38;59.60;;;;;;;12.35;78.54;101673.41;5009951;28;20128;-79
2022/12/30 06:24:09;;;;;;;166.38;69.63;;;;;;;11.77;78.62;101608.75;5013354;28;20050;-78
2022/12/30 06:26:35;;;;;;;152.10;72.00;;;;;;;11.87;78.93;101649.69;5011663;28;20054;-77
2022/12/30 06:29:02;;;;;;;135.48;60.90;;;;;;;12.51;77.57;101651.72;5039091;28;20048;-78
2022/12/30 06:31:29;;;;;;;131.18;58.60;;;;;;;12.46;77.38;101661.91;5053462;28;20529;-79
2022/12/30 06:33:58;;;;;;;137.95;58.45;;;;;;;12.70;76.15;101656.44;5035177;28;20040;-79
2022/12/30 06:36:24;;;;;;;132.50;60.85;;;;;;;12.66;75.71;101660.31;5030018;28;20049;-78
2022/12/30 06:38:52;;;;;;;138.50;66.93;;;;;;;12.44;76.84;101681.66;5010261;28;20411;-79
2022/12/30 06:41:19;;;;;;;134.73;58.13;;;;;;;12.71;76.68;101681.25;5012947;28;20241;-78
2022/12/30 06:43:46;;;;;;;154.43;77.07;;;;;;;12.89;74.96;101677.09;5010228;28;20053;-79
2022/12/30 06:46:13;;;;;;;131.98;59.65;;;;;;;12.73;75.81;101684.63;5009292;28;20241;-79
2022/12/30 06:48:40;;;;;;;148.48;73.00;;;;;;;12.73;76.12;101684.63;5014031;28;20244;-78
2022/12/30 06:51:07;;;;;;;124.20;60.22;;;;;;;12.88;75.18;101686.03;5009819;28;20182;-77
2022/12/30 06:53:36;;;;;;;141.82;73.05;;;;;;;12.96;74.75;101696.06;5014171;28;20132;-78
2022/12/30 06:56:03;;;;;;;138.70;64.82;;;;;;;12.77;75.52;101686.09;5016901;28;20398;-75
2022/12/30 06:58:30;;;;;;;145.40;72.68;;;;;;;12.43;75.47;101691.47;5043588;28;20066;-78
2022/12/30 07:01:00;;;;;;;128.23;65.75;;;;;;;13.02;74.54;101683.09;5067758;28;20147;-78
2022/12/30 07:03:27;;;;;;;138.73;68.88;;;;;;;13.00;74.53;101711.69;5048631;28;20563;-78
2022/12/30 07:05:54;;;;;;;141.90;69.88;;;;;;;12.48;74.86;101670.63;5032726;28;20048;-77
2022/12/30 07:08:21;;;;;;;127.72;68.05;;;;;;;12.57;75.54;101712.53;5032330;28;20429;-79
2022/12/30 07:10:48;;;;;;;125.90;64.97;;;;;;;12.56;75.68;101678.84;5031786;28;20110;-76
2022/12/30 07:13:17;;;;;;;137.45;70.20;;;;;;;12.54;74.89;101679.94;5032402;28;20063;-79
2022/12/30 07:15:44;;;;;;;123.80;64.63;;;;;;;12.76;75.63;101735.00;5049744;28;20147;-79
2022/12/30 07:18:17;;;;;;;116.75;60.83;;;;;;;12.20;76.01;101669.28;5032506;28;20066;-76
2022/12/30 07:20:44;;;;;;;125.90;65.40;;;;;;;12.38;76.50;101744.25;5033050;28;20051;-80
2022/12/30 07:23:16;;;;;;;125.15;63.78;;;;;;;12.54;76.59;101742.03;5036035;28;20412;-76
2022/12/30 07:25:46;;;;;;;140.60;71.22;;;;;;;12.31;74.45;101681.78;5053311;28;20489;-79
2022/12/30 07:28:13;;;;;;;139.63;70.30;;;;;;;12.69;74.94;101736.47;5053878;28;20328;-79
2022/12/30 07:30:40;;;;;;;145.52;76.20;;;;;;;12.51;75.08;101728.97;5025773;28;20424;-80
2022/12/30 07:33:08;;;;;;;145.80;72.13;;;;;;;12.08;76.47;101761.59;5033374;28;20512;-79
2022/12/30 07:35:34;;;;;;;138.82;70.88;;;;;;;11.79;77.56;101761.13;5035312;28;20136;-77
2022/12/30 07:38:01;;;;;;;134.32;65.47;;;;;;;11.82;78.34;101728.13;5036370;28;20449;-78
2022/12/30 07:40:28;;;;;;;126.85;62.40;;;;;;;12.87;75.83;101777.63;5035876;28;20345;-78
2022/12/30 07:42:55;;;;;;;134.63;71.40;;;;;;;12.25;75.99;101764.78;5035897;28;20155;-79
2022/12/30 07:45:24;;;;;;;126.38;65.63;;;;;;;11.80;77.32;101756.69;5034948;28;20410;-79
2022/12/30 07:47:51;;;;;;;143.52;70.53;;;;;;;12.08;77.90;101774.06;5035285;28;20684;-79
2022/12/30 07:50:18;;;;;;;146.90;72.97;;;;;;;11.87;77.39;101774.75;5026161;28;20513;-80
2022/12/30 07:52:45;;;;;;;142.90;71.47;;;;;;;11.22;78.76;101752.06;5015587;28;20060;-80
2022/12/30 07:55:14;;;;;;;142.68;70.65;;;;;;;11.15;79.93;101782.72;5020555;28;20060;-78
2022/12/30 07:57:42;;;;;;;142.15;71.57;;;;;;;10.88;81.67;101796.19;5026012;28;20506;-79
2022/12/30 08:00:09;;;;;;;121.78;64.07;;;;;;;10.48;82.24;101749.41;5039168;28;20452;-79
2022/12/30 08:02:36;;;;;;;135.40;63.80;;;;;;;11.46;81.84;101805.25;5035553;28;20052;-79
2022/12/30 08:05:04;;;;;;;151.50;72.15;;;;;;;11.26;81.01;101788.13;5036854;28;20075;-76
2022/12/30 08:07:30;;;;;;;152.05;72.68;;;;;;;11.18;80.96;101817.03;5036084;28;20052;-77
2022/12/30 08:09:57;;;;;;;151.10;69.50;;;;;;;10.89;81.70;101804.03;5034604;28;20048;-77
2022/12/30 08:12:24;;;;;;;142.25;66.82;;;;;;;10.79;82.98;101826.06;5034158;28;20357;-79
2022/12/30 08:14:51;;;;;;;156.88;67.57;;;;;;;10.48;84.10;101794.53;5036677;28;20094;-77
2022/12/30 08:17:19;;;;;;;148.82;67.75;;;;;;;10.54;83.54;101824.28;5050739;28;20496;-78
2022/12/30 08:19:46;;;;;;;148.77;68.68;;;;;;;10.37;85.23;101818.31;5036173;28;20151;-77
2022/12/30 08:22:12;;;;;;;133.98;66.28;;;;;;;10.38;85.55;101830.63;5031970;28;20209;-79
2022/12/30 08:24:42;;;;;;;137.48;62.78;;;;;;;10.10;86.14;101805.09;5033590;28;20048;-76
2022/12/30 08:27:11;;;;;;;144.68;62.70;;;;;;;10.27;86.34;101851.72;5026439;28;20639;-80
2022/12/30 08:29:38;;;;;;;136.05;62.00;;;;;;;10.25;86.06;101835.03;5009020;28;20514;-78
2022/12/30 08:32:05;;;;;;;139.43;61.72;;;;;;;10.35;86.51;101851.22;5016217;28;20064;-79
2022/12/30 08:34:35;;;;;;;127.53;61.22;;;;;;;10.21;86.50;101833.53;5033478;28;20345;-76
2022/12/30 08:37:02;;;;;;;137.45;62.70;;;;;;;10.16;86.41;101830.34;5026018;28;20569;-76
2022/12/30 08:39:32;;;;;;;133.05;61.50;;;;;;;10.13;86.93;101817.31;5022029;28;20464;-78
2022/12/30 08:41:59;;;;;;;139.23;60.78;;;;;;;10.17;86.57;101829.38;5028057;28;20045;-77
2022/12/30 08:44:26;;;;;;;129.52;58.33;;;;;;;10.19;86.48;101840.75;5034408;28;20048;-79
2022/12/30 08:46:53;;;;;;;136.00;61.88;;;;;;;10.19;86.97;101846.06;5033383;28;20051;-77
2022/12/30 08:49:20;;;;;;;135.60;60.28;;;;;;;10.23;87.23;101844.91;5035972;28;20109;-78
2022/12/30 08:51:49;;;;;;;140.80;64.57;;;;;;;9.99;87.15;101812.91;5027393;28;20136;-78
2022/12/30 08:54:17;;;;;;;151.25;62.60;;;;;;;9.82;87.33;101796.31;5033175;28;20113;-77
2022/12/30 08:56:47;;;;;;;132.75;58.38;;;;;;;10.13;88.46;101842.03;5044175;28;20078;-79
2022/12/30 08:59:14;;;;;;;149.00;64.88;;;;;;;10.04;88.03;101816.94;5026593;28;20403;-77
2022/12/30 09:01:43;;;;;;;146.50;64.90;;;;;;;10.12;88.12;101829.72;5029716;28;20122;-77
2022/12/30 09:04:11;;;;;;;136.90;64.85;;;;;;;9.98;87.81;101790.84;5043010;28;20640;-78
2022/12/30 09:06:43;;;;;;;130.27;61.45;;;;;;;10.39;87.86;101861.53;5015855;28;20048;-78
2022/12/30 09:09:13;;;;;;;137.27;60.38;;;;;;;10.34;86.83;101858.34;5016284;28;20516;-77
2022/12/30 09:11:44;;;;;;;127.40;56.80;;;;;;;9.87;87.10;101790.72;5032170;28;20129;-80
2022/12/30 09:14:17;;;;;;;136.65;61.13;;;;;;;10.39;87.79;101866.84;5036611;28;20099;-79
2022/12/30 09:16:44;;;;;;;135.50;63.25;;;;;;;10.41;86.97;101880.88;5052891;28;20067;-79
2022/12/30 09:19:11;;;;;;;117.72;54.58;;;;;;;10.24;87.27;101846.59;5041071;28;20048;-78
2022/12/30 09:21:48;;;;;;;136.93;59.65;;;;;;;10.71;86.97;101885.03;5038436;28;20048;-78
2022/12/30 09:24:15;;;;;;;131.38;60.97;;;;;;;10.72;86.22;101894.69;5051442;28;20056;-79
2022/12/30 09:26:41;;;;;;;130.95;60.50;;;;;;;10.67;86.57;101897.66;5029191;28;20694;-78
2022/12/30 09:29:08;;;;;;;135.65;58.80;;;;;;;10.54;86.89;101878.22;5032102;28;20057;-78
2022/12/30 09:31:36;;;;;;;131.80;60.17;;;;;;;10.66;86.68;101897.78;5030163;28;20750;-77
2022/12/30 09:34:05;;;;;;;120.10;56.58;;;;;;;10.62;85.91;101890.97;5037111;28;20052;-76
2022/12/30 09:36:35;;;;;;;123.25;58.78;;;;;;;10.54;86.16;101883.53;5035685;28;20048;-79
2022/12/30 09:39:33;;;;;;;112.88;53.10;;;;;;;10.60;85.82;101887.56;5054906;28;20055;-79
2022/12/30 09:45:09;;;;;;;145.98;63.30;;;;;;;9.60;85.63;101764.22;5060185;28;20078;-76
2022/12/30 09:47:49;;;;;;;141.15;58.95;;;;;;;10.25;87.11;101888.13;5033469;28;20486;-78
2022/12/30 09:50:20;;;;;;;127.20;56.67;;;;;;;10.28;87.99;101893.25;5041779;28;20044;-77
2022/12/30 09:53:03;;;;;;;143.38;60.17;;;;;;;8.98;87.62;101661.41;5037488;28;20564;-77
2022/12/30 09:55:36;;;;;;;121.47;55.35;;;;;;;10.34;87.68;101845.06;5032771;28;20072;-78
2022/12/30 09:58:11;;;;;;;142.02;59.28;;;;;;;10.60;87.68;101858.34;5033403;28;20094;-75
2022/12/30 10:00:38;;;;;;;142.07;57.85;;;;;;;10.55;87.24;101868.44;5033821;28;20040;-77
2022/12/30 10:03:20;;;;;;;143.20;59.33;;;;;;;10.58;86.45;101892.13;5035793;28;20151;-76
2022/12/30 10:06:28;;;;;;;134.68;55.15;;;;;;;10.47;86.72;101883.09;5036391;28;20052;-77
2022/12/30 10:09:12;;;;;;;131.30;58.67;;;;;;;10.40;87.40;101892.41;5053386;28;20207;-79
2022/12/30 10:11:54;;;;;;;147.07;60.80;;;;;;;10.39;88.13;101889.84;5037330;28;20310;-79
2022/12/30 10:14:42;;;;;;;135.55;59.88;;;;;;;10.35;87.56;101873.31;5036171;28;20142;-78
2022/12/30 10:17:36;;;;;;;130.40;57.03;;;;;;;10.33;87.94;101875.22;5035445;28;20402;-78
2022/12/30 10:20:33;;;;;;;135.65;58.47;;;;;;;9.58;87.91;101751.06;5032035;28;20079;-79
2022/12/30 10:23:03;;;;;;;142.43;59.00;;;;;;;8.94;87.84;101642.25;5031420;28;20059;-77
2022/12/30 10:25:48;;;;;;;134.20;57.47;;;;;;;10.31;87.70;101871.81;5034736;28;20048;-77
2022/12/30 10:28:24;;;;;;;129.32;67.95;;;;;;;10.22;87.80;101859.16;5030862;28;20055;-78
2022/12/30 10:30:53;;;;;;;125.82;55.78;;;;;;;10.26;88.80;101857.97;5054796;28;20783;-77
2022/12/30 10:33:22;;;;;;;121.45;56.47;;;;;;;10.28;88.51;101866.72;5036327;28;20056;-77
2022/12/30 10:35:59;;;;;;;110.80;50.38;;;;;;;10.19;88.43;101840.75;5030780;28;20084;-77
2022/12/30 10:38:30;;;;;;;122.80;55.08;;;;;;;10.34;88.17;101858.34;5014047;28;20498;-79
2022/12/30 10:41:06;;;;;;;101.07;50.22;;;;;;;10.41;87.78;101867.59;5033005;28;20049;-78
2022/12/30 10:43:48;;;;;;;98.78;49.08;;;;;;;9.89;87.51;101785.31;5038097;28;20428;-78
2022/12/30 10:46:40;;;;;;;116.47;52.88;;;;;;;10.38;87.52;101851.84;5027813;28;20607;-78
2022/12/30 10:49:21;;;;;;;118.70;49.72;;;;;;;10.39;88.52;101856.22;5032166;28;20128;-78
2022/12/30 10:51:49;;;;;;;112.57;50.88;;;;;;;10.35;87.51;101852.06;5033299;28;20482;-78
2022/12/30 10:54:16;;;;;;;103.70;49.30;;;;;;;10.42;87.84;101845.38;5033151;28;20474;-77
2022/12/30 10:56:44;;;;;;;102.55;48.83;;;;;;;10.49;87.30;101848.47;5031303;28;20065;-77
2022/12/30 10:59:14;;;;;;;94.75;44.33;;;;;;;10.54;86.47;101856.13;5054971;28;20106;-78
2022/12/30 11:01:45;;;;;;;102.03;47.45;;;;;;;10.37;86.26;101831.59;5031130;28;20048;-77
2022/12/30 11:04:33;;;;;;;104.20;47.65;;;;;;;10.51;86.35;101856.31;5010564;28;20142;-78
2022/12/30 11:07:04;;;;;;;100.28;44.95;;;;;;;10.40;86.34;101839.31;5013587;28;20048;-76
2022/12/30 11:09:31;;;;;;;102.47;46.63;;;;;;;10.33;86.23;101835.38;5014259;28;20049;-78
2022/12/30 11:15:06;;;;;;;106.82;47.75;;;;;;;10.22;86.75;101825.50;5052293;28;20053;-78
2022/12/30 11:17:41;;;;;;;98.35;48.08;;;;;;;10.42;86.48;101855.16;5033274;28;20087;-77
2022/12/30 11:20:13;;;;;;;105.30;49.00;;;;;;;10.01;87.02;101785.31;5050578;28;20326;-76
2022/12/30 11:22:49;;;;;;;114.07;50.63;;;;;;;10.34;87.36;101845.06;5035551;28;20469;-76
2022/12/30 11:25:25;;;;;;;103.22;48.63;;;;;;;10.42;87.02;101858.66;5052402;28;20334;-80
2022/12/30 11:28:02;;;;;;;105.53;44.10;;;;;;;10.22;86.37;101819.34;5032712;28;20053;-76
2022/12/30 11:30:39;;;;;;;89.03;45.10;;;;;;;10.30;86.56;101840.91;5036928;28;20064;-78
2022/12/30 11:33:29;;;;;;;95.35;46.67;;;;;;;10.41;86.71;101856.97;5059355;28;20331;-79
2022/12/30 11:36:15;;;;;;;98.55;46.63;;;;;;;10.42;86.88;101841.88;5032459;28;20562;-77
2022/12/30 11:38:52;;;;;;;97.07;43.90;;;;;;;10.35;86.32;101825.53;5019772;28;20555;-79
2022/12/30 11:41:22;;;;;;;84.57;45.15;;;;;;;10.50;85.35;101839.53;5018543;28;20273;-75
2022/12/30 11:44:01;;;;;;;82.13;41.88;;;;;;;10.21;85.19;101796.38;5019605;28;20053;-77
2022/12/30 11:46:36;;;;;;;83.75;42.83;;;;;;;10.25;85.17;101798.72;5016390;28;20134;-77
2022/12/30 11:49:17;;;;;;;83.90;42.83;;;;;;;10.48;85.63;101852.06;5016155;28;20132;-78
2022/12/30 11:51:48;;;;;;;98.72;45.33;;;;;;;10.32;85.77;101830.22;5047850;28;20489;-78
2022/12/30 11:54:21;;;;;;;90.63;43.45;;;;;;;10.47;86.17;101851.22;5037452;28;20076;-77
2022/12/30 11:57:03;;;;;;;89.18;45.17;;;;;;;10.48;85.89;101839.66;5038918;28;20060;-76
2022/12/30 11:59:37;;;;;;;94.97;46.00;;;;;;;10.41;85.62;101835.75;5035730;28;20494;-78
2022/12/30 12:02:17;;;;;;;94.32;46.47;;;;;;;10.37;85.41;101828.94;5052888;28;20139;-78
2022/12/30 12:04:45;;;;;;;89.78;45.53;;;;;;;10.21;85.30;101801.69;5035799;28;20040;-78
2022/12/30 12:07:24;;;;;;;91.22;46.35;;;;;;;10.14;84.76;101800.41;5052137;28;20254;-79
2022/12/30 12:10:02;;;;;;;101.50;49.00;;;;;;;10.28;85.76;101832.22;5038130;28;20086;-78
2022/12/30 12:12:48;;;;;;;100.95;49.58;;;;;;;10.42;85.83;101857.81;5037152;28;20135;-78
2022/12/30 12:15:42;;;;;;;105.97;49.95;;;;;;;10.40;85.46;101847.28;5019204;28;20196;-77
2022/12/30 12:18:21;;;;;;;101.13;50.75;;;;;;;10.40;86.39;101847.28;5035273;28;20139;-78
2022/12/30 12:21:08;;;;;;;99.35;47.45;;;;;;;10.38;86.95;101846.53;5019077;28;20482;-79